Weather - Helsinki Query any day in the database

Current weather  

Weather data for a selected day (2006-01-01 -2020-10-31)
Enter date:     <-     scroll days         ->
day curves
Low temperature°C +9.105:30
High temperature°C +32700.011:00
Low wind chill°C 8.105:30
Average temperature°C +727.3 
High wind speed (10 min) m/s 32700.011:00
Low pressurehPa 1028.100:00
High pressurehPa 32700.011:00
Low R.H% 2014:00
High R.H% 25511:00
High precipitation (1h)mm 32700.011:00
Total precipitation of the daymm 32700 
Maximum snow depthcm 25511:00
Day weather data as a table
Date Time Temp
°C
Chill
°C
Pressure
hPA
Wind
m/s
Hum
%
Precip
mm
2020-05-26 23:30:00 14.3  13.2  1028.2 4.2 46 -
2020-05-26 23:00:00 14.9  14.4  1028.3 2.9 44 -
2020-05-26 22:30:00 16.2  16.0  1028.4 2.8 39 -
2020-05-26 22:00:00 17.1  16.8  1028.4 3.8 36 -
2020-05-26 21:30:00 18.7  18.4  1028.2 5.1 32 -
2020-05-26 21:00:00 19.4  19.2  1028.2 5.7 30 -
2020-05-26 20:30:00 20.1  ....  1028.2 5.5 30 -
2020-05-26 20:00:00 20.7  ....  1028.2 6.4 29 -
2020-05-26 19:30:00 21.0  ....  1028.4 6.8 28 -
2020-05-26 19:00:00 21.6  ....  1028.4 7.3 26 -
2020-05-26 18:30:00 21.3  ....  1028.6 4.4 27 -
2020-05-26 18:00:00 22.1  ....  1028.6 1.9 22 -
2020-05-26 17:30:00 22.6  ....  1028.7 3.8 21 -
2020-05-26 17:00:00 22.1  ....  1028.8 3.0 23 -
2020-05-26 16:30:00 22.3  ....  1029.0 3.8 21 -
2020-05-26 16:00:00 23.2  ....  1029.0 2.3 20 -
2020-05-26 15:30:00 22.0  ....  1029.4 3.0 21 -
2020-05-26 15:00:00 23.0  ....  1029.5 3.7 21 -
2020-05-26 14:30:00 21.6  ....  1029.6 2.5 22 -
2020-05-26 14:00:00 22.6  ....  1029.8 3.8 20 -
2020-05-26 13:30:00 22.6  ....  1030.0 3.8 21 -
2020-05-26 13:00:00 21.4  ....  1030.2 2.5 23 -
2020-05-26 12:30:00 20.8  ....  1030.3 3.6 23 -
2020-05-26 12:00:00 21.1  ....  1030.3 5.1 24 -
2020-05-26 11:30:00 21.2  ....  1030.3 4.7 23 -
2020-05-26 11:00:00 32700.0  ....  32700.0 32700.0 255 32700.0
2020-05-26 10:00:00 19.7  19.7  1030.6 2.4 36 -
2020-05-26 09:30:00 18.0  18.0  1030.5 1.3 42 -
2020-05-26 08:30:00 15.4  15.4  1030.3 1.7 53 -
2020-05-26 08:00:00 14.1  13.7  1030.3 2.5 60 -
2020-05-26 07:30:00 12.7  12.0  1030.2 2.5 65 -
2020-05-26 07:00:00 11.6  11.4  1030.1 1.6 71 -
2020-05-26 06:30:00 10.5  10.5  1030.0 1.2 76 -
2020-05-26 06:00:00 9.4  9.3  1029.9 1.2 82 -
2020-05-26 05:30:00 9.1  8.1  1029.6 2.0 81 -
2020-05-26 05:00:00 9.1  8.4  1029.5 1.7 81 -
2020-05-26 04:30:00 9.7  8.1  1029.3 3.0 78 -
2020-05-26 04:00:00 10.8  8.9  1029.0 4.1 73 -
2020-05-26 03:30:00 10.5  8.8  1028.9 3.6 74 -
2020-05-26 03:00:00 11.3  10.0  1029.0 3.2 71 -
2020-05-26 02:30:00 12.0  10.7  1029.0 3.4 68 -
2020-05-26 02:00:00 11.4  9.8  1028.8 3.8 72 -
2020-05-26 01:30:00 11.1  9.4  1028.7 3.8 73 -
2020-05-26 01:00:00 12.3  10.9  1028.6 3.7 68 -
2020-05-26 00:30:00 12.1  10.5  1028.4 4.1 68 -
2020-05-26 00:00:00 12.9  11.5  1028.1 4.1 63 -
Unit conversions: